sensor_id;sensor_type;location;lat;lon;timestamp;pressure;altitude;pressure_sealevel;temperature;humidity
829;BME280;396;52.558;13.188;2023-02-18T00:00:24;100986.84;;;7.77;81.55
829;BME280;396;52.558;13.188;2023-02-18T00:02:51;100991.44;;;7.81;81.17
829;BME280;396;52.558;13.188;2023-02-18T00:05:18;101000.34;;;7.72;81.91
829;BME280;396;52.558;13.188;2023-02-18T00:07:45;100978.50;;;7.73;82.12
829;BME280;396;52.558;13.188;2023-02-18T00:10:13;100983.91;;;7.63;82.48
829;BME280;396;52.558;13.188;2023-02-18T00:12:42;100991.47;;;7.66;82.19
829;BME280;396;52.558;13.188;2023-02-18T00:15:09;100977.16;;;7.66;82.18
829;BME280;396;52.558;13.188;2023-02-18T00:17:35;100995.50;;;7.64;81.85
829;BME280;396;52.558;13.188;2023-02-18T00:20:02;100990.41;;;7.57;82.33
829;BME280;396;52.558;13.188;2023-02-18T00:22:29;100986.63;;;7.53;83.10
829;BME280;396;52.558;13.188;2023-02-18T00:24:56;101009.25;;;7.52;82.86
829;BME280;396;52.558;13.188;2023-02-18T00:27:22;101005.47;;;7.58;82.60
829;BME280;396;52.558;13.188;2023-02-18T00:29:50;101004.41;;;7.49;83.53
829;BME280;396;52.558;13.188;2023-02-18T00:32:17;100996.31;;;7.49;83.53
829;BME280;396;52.558;13.188;2023-02-18T00:34:43;101015.72;;;7.46;83.02
829;BME280;396;52.558;13.188;2023-02-18T00:37:10;101009.81;;;7.44;83.07
829;BME280;396;52.558;13.188;2023-02-18T00:39:37;101020.31;;;7.35;83.59
829;BME280;396;52.558;13.188;2023-02-18T00:42:04;101010.84;;;7.38;83.37
829;BME280;396;52.558;13.188;2023-02-18T00:44:31;101013.56;;;7.27;83.74
829;BME280;396;52.558;13.188;2023-02-18T00:46:59;101025.38;;;7.21;85.01
829;BME280;396;52.558;13.188;2023-02-18T00:49:25;101025.38;;;7.16;85.29
829;BME280;396;52.558;13.188;2023-02-18T00:51:52;101022.44;;;7.18;85.07
829;BME280;396;52.558;13.188;2023-02-18T00:54:18;101033.19;;;7.13;85.37
829;BME280;396;52.558;13.188;2023-02-18T00:56:45;101031.03;;;7.10;86.26
829;BME280;396;52.558;13.188;2023-02-18T00:59:12;101028.34;;;7.15;85.45
829;BME280;396;52.558;13.188;2023-02-18T01:01:38;101022.16;;;7.09;85.36
829;BME280;396;52.558;13.188;2023-02-18T01:04:06;101026.97;;;7.07;85.39
829;BME280;396;52.558;13.188;2023-02-18T01:06:33;101023.47;;;7.06;85.25
829;BME280;396;52.558;13.188;2023-02-18T01:08:59;101036.44;;;7.10;85.30
829;BME280;396;52.558;13.188;2023-02-18T01:11:26;101030.50;;;7.13;84.85
829;BME280;396;52.558;13.188;2023-02-18T01:13:53;101021.31;;;7.03;85.43
829;BME280;396;52.558;13.188;2023-02-18T01:16:19;101011.63;;;7.02;85.54
829;BME280;396;52.558;13.188;2023-02-18T01:18:46;101023.47;;;7.06;84.54
829;BME280;396;52.558;13.188;2023-02-18T01:21:14;101020.50;;;7.03;85.18
829;BME280;396;52.558;13.188;2023-02-18T01:23:41;101024.28;;;7.02;84.83
829;BME280;396;52.558;13.188;2023-02-18T01:26:09;101034.53;;;7.00;86.02
829;BME280;396;52.558;13.188;2023-02-18T01:28:36;101031.84;;;7.00;85.26
829;BME280;396;52.558;13.188;2023-02-18T01:31:05;101027.78;;;6.97;85.18
829;BME280;396;52.558;13.188;2023-02-18T01:33:32;101029.97;;;7.05;84.50
829;BME280;396;52.558;13.188;2023-02-18T01:35:59;101021.88;;;7.00;85.09
829;BME280;396;52.558;13.188;2023-02-18T01:38:27;101024.84;;;7.04;84.58
829;BME280;396;52.558;13.188;2023-02-18T01:40:53;101030.25;;;7.09;84.52
829;BME280;396;52.558;13.188;2023-02-18T01:43:20;101032.09;;;7.03;85.06
829;BME280;396;52.558;13.188;2023-02-18T01:45:56;101027.78;;;6.97;85.03
829;BME280;396;52.558;13.188;2023-02-18T01:48:26;101032.88;;;6.94;85.54
829;BME280;396;52.558;13.188;2023-02-18T01:50:58;101026.16;;;6.96;86.14
829;BME280;396;52.558;13.188;2023-02-18T01:53:31;101020.50;;;6.98;85.57
829;BME280;396;52.558;13.188;2023-02-18T01:55:59;101013.78;;;7.05;85.19
829;BME280;396;52.558;13.188;2023-02-18T01:58:29;101010.28;;;7.05;85.06
829;BME280;396;52.558;13.188;2023-02-18T02:00:55;101018.88;;;6.92;85.54
829;BME280;396;52.558;13.188;2023-02-18T02:03:22;101020.78;;;6.96;85.71
829;BME280;396;52.558;13.188;2023-02-18T02:05:49;101003.81;;;7.01;84.75
829;BME280;396;52.558;13.188;2023-02-18T02:08:15;100997.34;;;6.97;85.99
829;BME280;396;52.558;13.188;2023-02-18T02:10:55;101004.06;;;6.89;85.97
829;BME280;396;52.558;13.188;2023-02-18T02:13:31;101008.91;;;6.87;85.81
829;BME280;396;52.558;13.188;2023-02-18T02:16:05;101017.00;;;6.87;86.09
829;BME280;396;52.558;13.188;2023-02-18T02:18:44;101002.72;;;6.87;86.05
829;BME280;396;52.558;13.188;2023-02-18T02:27:25;101023.69;;;6.85;85.75
829;BME280;396;52.558;13.188;2023-02-18T02:36:03;101023.69;;;6.79;86.53
829;BME280;396;52.558;13.188;2023-02-18T02:38:37;101025.56;;;6.79;86.21
829;BME280;396;52.558;13.188;2023-02-18T02:41:16;101028.81;;;6.81;85.89
829;BME280;396;52.558;13.188;2023-02-18T02:43:55;101036.06;;;6.80;86.02
829;BME280;396;52.558;13.188;2023-02-18T02:46:30;101021.00;;;6.79;85.35
829;BME280;396;52.558;13.188;2023-02-18T02:49:08;101032.00;;;6.73;85.84
829;BME280;396;52.558;13.188;2023-02-18T02:51:42;101027.97;;;6.75;85.97
829;BME280;396;52.558;13.188;2023-02-18T02:54:14;101033.09;;;6.77;85.82
829;BME280;396;52.558;13.188;2023-02-18T02:56:41;101021.78;;;6.75;85.88
829;BME280;396;52.558;13.188;2023-02-18T02:59:12;101032.28;;;6.81;84.86
829;BME280;396;52.558;13.188;2023-02-18T03:01:52;101025.31;;;6.80;84.77
829;BME280;396;52.558;13.188;2023-02-18T03:04:59;101021.00;;;6.79;84.47
829;BME280;396;52.558;13.188;2023-02-18T03:07:55;101030.16;;;6.73;84.74
829;BME280;396;52.558;13.188;2023-02-18T03:10:45;101024.75;;;6.73;85.46
829;BME280;396;52.558;13.188;2023-02-18T03:13:17;101018.53;;;6.68;84.99
829;BME280;396;52.558;13.188;2023-02-18T03:15:54;101022.59;;;6.70;84.69
829;BME280;396;52.558;13.188;2023-02-18T03:18:27;101032.53;;;6.70;84.77
829;BME280;396;52.558;13.188;2023-02-18T03:20:59;101024.72;;;6.68;84.75
829;BME280;396;52.558;13.188;2023-02-18T03:23:34;101040.06;;;6.73;83.92
829;BME280;396;52.558;13.188;2023-02-18T03:26:03;101038.19;;;6.68;84.19
829;BME280;396;52.558;13.188;2023-02-18T03:28:32;101038.22;;;6.78;83.50
829;BME280;396;52.558;13.188;2023-02-18T03:31:02;101031.25;;;6.82;83.26
829;BME280;396;52.558;13.188;2023-02-18T03:33:36;101038.22;;;6.78;83.85
829;BME280;396;52.558;13.188;2023-02-18T03:36:04;101038.47;;;6.77;83.38
829;BME280;396;52.558;13.188;2023-02-18T03:38:37;101047.41;;;6.77;83.07
829;BME280;396;52.558;13.188;2023-02-18T03:41:05;101038.75;;;6.80;82.86
829;BME280;396;52.558;13.188;2023-02-18T03:43:32;101041.22;;;6.87;82.18
829;BME280;396;52.558;13.188;2023-02-18T03:45:59;101033.16;;;6.87;82.23
829;BME280;396;52.558;13.188;2023-02-18T03:48:26;101036.06;;;6.80;82.66
829;BME280;396;52.558;13.188;2023-02-18T03:50:52;101035.03;;;6.87;81.92
829;BME280;396;52.558;13.188;2023-02-18T03:53:19;101028.03;;;6.91;81.33
829;BME280;396;52.558;13.188;2023-02-18T03:55:47;101035.84;;;6.87;81.55
829;BME280;396;52.558;13.188;2023-02-18T03:58:14;101023.72;;;6.90;80.97
829;BME280;396;52.558;13.188;2023-02-18T04:00:40;101027.50;;;6.94;80.96
829;BME280;396;52.558;13.188;2023-02-18T04:03:07;101023.97;;;6.83;81.60
829;BME280;396;52.558;13.188;2023-02-18T04:05:33;101018.31;;;6.85;81.88
829;BME280;396;52.558;13.188;2023-02-18T04:08:00;101031.78;;;6.79;81.98
829;BME280;396;52.558;13.188;2023-02-18T04:10:27;101009.97;;;6.81;81.78
829;BME280;396;52.558;13.188;2023-02-18T04:12:55;101023.16;;;6.77;81.95
829;BME280;396;52.558;13.188;2023-02-18T04:15:22;101028.00;;;6.80;81.49
829;BME280;396;52.558;13.188;2023-02-18T04:17:48;101012.41;;;6.77;81.37
829;BME280;396;52.558;13.188;2023-02-18T04:20:15;101034.16;;;6.71;82.12
829;BME280;396;52.558;13.188;2023-02-18T04:22:41;101027.19;;;6.80;81.30
829;BME280;396;52.558;13.188;2023-02-18T04:25:08;101023.97;;;6.78;82.32
829;BME280;396;52.558;13.188;2023-02-18T04:27:35;101028.78;;;6.76;81.54
829;BME280;396;52.558;13.188;2023-02-18T04:30:03;101034.44;;;6.74;81.77
829;BME280;396;52.558;13.188;2023-02-18T04:32:30;101035.53;;;6.73;81.93
829;BME280;396;52.558;13.188;2023-02-18T04:34:57;101030.66;;;6.70;82.22
829;BME280;396;52.558;13.188;2023-02-18T04:37:23;101036.84;;;6.66;82.57
829;BME280;396;52.558;13.188;2023-02-18T04:39:50;101034.69;;;6.68;82.13
829;BME280;396;52.558;13.188;2023-02-18T04:42:17;101031.75;;;6.74;81.59
829;BME280;396;52.558;13.188;2023-02-18T04:44:43;101038.97;;;6.64;83.45
829;BME280;396;52.558;13.188;2023-02-18T04:47:11;101033.34;;;6.65;82.50
829;BME280;396;52.558;13.188;2023-02-18T04:49:38;101043.31;;;6.70;82.10
829;BME280;396;52.558;13.188;2023-02-18T04:52:04;101040.63;;;6.65;82.45
829;BME280;396;52.558;13.188;2023-02-18T04:54:31;101043.03;;;6.66;82.02
829;BME280;396;52.558;13.188;2023-02-18T04:56:58;101044.13;;;6.70;82.25
829;BME280;396;52.558;13.188;2023-02-18T04:59:24;101047.09;;;6.69;81.84
829;BME280;396;52.558;13.188;2023-02-18T05:01:51;101041.41;;;6.65;82.06
829;BME280;396;52.558;13.188;2023-02-18T05:04:19;101043.31;;;6.65;82.49
829;BME280;396;52.558;13.188;2023-02-18T05:06:46;101046.22;;;6.58;83.41
829;BME280;396;52.558;13.188;2023-02-18T05:09:13;101044.41;;;6.69;82.18
829;BME280;396;52.558;13.188;2023-02-18T05:11:40;101044.44;;;6.79;81.34
829;BME280;396;52.558;13.188;2023-02-18T05:14:07;101044.72;;;6.82;81.01
829;BME280;396;52.558;13.188;2023-02-18T05:16:34;101050.09;;;6.88;80.56
829;BME280;396;52.558;13.188;2023-02-18T05:19:00;101043.63;;;6.89;81.00
829;BME280;396;52.558;13.188;2023-02-18T05:21:29;101037.75;;;6.92;80.71
829;BME280;396;52.558;13.188;2023-02-18T05:23:56;101035.84;;;6.92;80.53
829;BME280;396;52.558;13.188;2023-02-18T05:26:23;101030.19;;;6.99;79.80
829;BME280;396;52.558;13.188;2023-02-18T05:28:50;101026.41;;;6.95;80.80
829;BME280;396;52.558;13.188;2023-02-18T05:31:16;101030.75;;;7.01;79.92
829;BME280;396;52.558;13.188;2023-02-18T05:33:43;101028.06;;;7.06;79.60
829;BME280;396;52.558;13.188;2023-02-18T05:36:09;101028.06;;;7.06;79.42
829;BME280;396;52.558;13.188;2023-02-18T05:38:37;101024.28;;;7.12;79.01
829;BME280;396;52.558;13.188;2023-02-18T05:41:04;101021.59;;;7.07;79.39
829;BME280;396;52.558;13.188;2023-02-18T05:43:31;101021.06;;;7.10;79.04
829;BME280;396;52.558;13.188;2023-02-18T05:46:18;101018.91;;;7.12;78.56
829;BME280;396;52.558;13.188;2023-02-18T05:48:45;101025.38;;;7.16;78.35
829;BME280;396;52.558;13.188;2023-02-18T05:51:11;101022.16;;;7.24;77.27
829;BME280;396;52.558;13.188;2023-02-18T05:53:40;101018.94;;;7.22;77.07
829;BME280;396;52.558;13.188;2023-02-18T05:56:06;101028.34;;;7.30;76.99
829;BME280;396;52.558;13.188;2023-02-18T05:58:33;101030.53;;;7.28;77.64
829;BME280;396;52.558;13.188;2023-02-18T06:01:00;101031.34;;;7.33;77.06
829;BME280;396;52.558;13.188;2023-02-18T06:03:26;101032.97;;;7.40;76.48
829;BME280;396;52.558;13.188;2023-02-18T06:05:53;101024.34;;;7.27;77.62
829;BME280;396;52.558;13.188;2023-02-18T06:08:19;101020.84;;;7.27;77.76
829;BME280;396;52.558;13.188;2023-02-18T06:10:47;101025.41;;;7.31;77.53
829;BME280;396;52.558;13.188;2023-02-18T06:13:14;101028.63;;;7.39;76.62
829;BME280;396;52.558;13.188;2023-02-18T06:15:40;101011.41;;;7.40;77.03
829;BME280;396;52.558;13.188;2023-02-18T06:18:07;101015.72;;;7.36;77.42
829;BME280;396;52.558;13.188;2023-02-18T06:20:34;101020.31;;;7.35;77.89
829;BME280;396;52.558;13.188;2023-02-18T06:23:00;101025.41;;;7.42;77.40
829;BME280;396;52.558;13.188;2023-02-18T06:25:27;101024.06;;;7.39;78.26
829;BME280;396;52.558;13.188;2023-02-18T06:27:55;101029.19;;;7.41;77.24
829;BME280;396;52.558;13.188;2023-02-18T06:30:21;101026.50;;;7.41;77.76
829;BME280;396;52.558;13.188;2023-02-18T06:32:48;101029.19;;;7.51;76.57
829;BME280;396;52.558;13.188;2023-02-18T06:35:15;101034.06;;;7.49;77.09
829;BME280;396;52.558;13.188;2023-02-18T06:37:41;101031.59;;;7.47;76.72
829;BME280;396;52.558;13.188;2023-02-18T06:40:09;101029.47;;;7.49;76.77
829;BME280;396;52.558;13.188;2023-02-18T06:42:36;101018.69;;;7.44;78.02
829;BME280;396;52.558;13.188;2023-02-18T06:45:04;101023.81;;;7.46;77.22
829;BME280;396;52.558;13.188;2023-02-18T06:47:32;101019.22;;;7.46;77.89
829;BME280;396;52.558;13.188;2023-02-18T06:49:59;101017.31;;;7.47;79.05
829;BME280;396;52.558;13.188;2023-02-18T06:52:25;101006.81;;;7.45;78.01
829;BME280;396;52.558;13.188;2023-02-18T06:54:52;101024.59;;;7.51;78.28
829;BME280;396;52.558;13.188;2023-02-18T06:57:18;101020.56;;;7.49;77.94
829;BME280;396;52.558;13.188;2023-02-18T06:59:45;101026.78;;;7.54;78.12
829;BME280;396;52.558;13.188;2023-02-18T07:02:13;101022.19;;;7.60;77.69
829;BME280;396;52.558;13.188;2023-02-18T07:04:39;101013.84;;;7.62;77.29
829;BME280;396;52.558;13.188;2023-02-18T07:07:06;101012.47;;;7.59;77.90
829;BME280;396;52.558;13.188;2023-02-18T07:09:33;101015.69;;;7.61;77.71
829;BME280;396;52.558;13.188;2023-02-18T07:11:59;101010.88;;;7.58;77.90
829;BME280;396;52.558;13.188;2023-02-18T07:14:26;101012.47;;;7.69;77.29
829;BME280;396;52.558;13.188;2023-02-18T07:16:52;101012.19;;;7.81;76.10
829;BME280;396;52.558;13.188;2023-02-18T07:19:20;101004.09;;;7.81;76.53
829;BME280;396;52.558;13.188;2023-02-18T07:21:47;101010.84;;;7.68;77.44
829;BME280;396;52.558;13.188;2023-02-18T07:24:14;101001.94;;;7.73;77.26
829;BME280;396;52.558;13.188;2023-02-18T07:26:40;100993.59;;;7.74;77.05
829;BME280;396;52.558;13.188;2023-02-18T07:29:07;100996.03;;;7.76;77.95
829;BME280;396;52.558;13.188;2023-02-18T07:31:34;100996.00;;;7.81;76.93
829;BME280;396;52.558;13.188;2023-02-18T07:34:02;100993.59;;;7.79;78.44
829;BME280;396;52.558;13.188;2023-02-18T07:36:30;100988.72;;;7.81;78.85
829;BME280;396;52.558;13.188;2023-02-18T07:38:57;100989.25;;;7.78;79.58
829;BME280;396;52.558;13.188;2023-02-18T07:41:26;100979.28;;;7.89;79.21
829;BME280;396;52.558;13.188;2023-02-18T07:44:06;100974.16;;;7.88;78.98
829;BME280;396;52.558;13.188;2023-02-18T07:46:33;100970.09;;;7.90;79.85
829;BME280;396;52.558;13.188;2023-02-18T07:48:59;100972.28;;;7.88;80.72
829;BME280;396;52.558;13.188;2023-02-18T07:51:26;100969.59;;;7.78;82.91
829;BME280;396;52.558;13.188;2023-02-18T07:53:54;100972.31;;;7.68;83.63
829;BME280;396;52.558;13.188;2023-02-18T07:56:20;100961.53;;;7.57;84.90
829;BME280;396;52.558;13.188;2023-02-18T07:58:47;100963.41;;;7.52;84.64
829;BME280;396;52.558;13.188;2023-02-18T08:01:14;100953.72;;;7.46;86.60
829;BME280;396;52.558;13.188;2023-02-18T08:03:40;100948.06;;;7.37;87.87
829;BME280;396;52.558;13.188;2023-02-18T08:06:07;100945.38;;;7.37;87.47
829;BME280;396;52.558;13.188;2023-02-18T08:08:34;100944.03;;;7.40;87.86
829;BME280;396;52.558;13.188;2023-02-18T08:11:02;100927.06;;;7.34;88.94
829;BME280;396;52.558;13.188;2023-02-18T08:13:31;100934.06;;;7.40;87.78
829;BME280;396;52.558;13.188;2023-02-18T08:15:57;100928.41;;;7.42;88.18
829;BME280;396;52.558;13.188;2023-02-18T08:18:25;100923.56;;;7.44;88.24
829;BME280;396;52.558;13.188;2023-02-18T08:20:52;100923.31;;;7.35;89.51
829;BME280;396;52.558;13.188;2023-02-18T08:23:20;100911.97;;;7.23;90.81
829;BME280;396;52.558;13.188;2023-02-18T08:25:48;100919.28;;;7.17;92.69
829;BME280;396;52.558;13.188;2023-02-18T08:28:17;100903.38;;;7.11;94.44
829;BME280;396;52.558;13.188;2023-02-18T08:30:44;100906.88;;;7.01;95.43
829;BME280;396;52.558;13.188;2023-02-18T08:33:11;100900.94;;;6.89;97.62
829;BME280;396;52.558;13.188;2023-02-18T08:35:38;100901.22;;;6.82;98.91
829;BME280;396;52.558;13.188;2023-02-18T08:38:05;100902.53;;;6.85;100.00
829;BME280;396;52.558;13.188;2023-02-18T08:40:31;100891.50;;;6.81;100.00
829;BME280;396;52.558;13.188;2023-02-18T08:42:58;100895.81;;;6.82;100.00
829;BME280;396;52.558;13.188;2023-02-18T08:45:26;100892.31;;;6.76;100.00
829;BME280;396;52.558;13.188;2023-02-18T08:47:52;100888.81;;;6.76;100.00
829;BME280;396;52.558;13.188;2023-02-18T08:50:19;100889.09;;;6.74;100.00
829;BME280;396;52.558;13.188;2023-02-18T08:52:50;100878.31;;;6.74;100.00
829;BME280;396;52.558;13.188;2023-02-18T08:55:17;100882.63;;;6.75;100.00
829;BME280;396;52.558;13.188;2023-02-18T08:57:45;100885.88;;;6.77;100.00
829;BME280;396;52.558;13.188;2023-02-18T09:00:13;100876.16;;;6.76;100.00
829;BME280;396;52.558;13.188;2023-02-18T09:02:41;100876.69;;;6.78;100.00
829;BME280;396;52.558;13.188;2023-02-18T09:05:08;100855.69;;;6.80;100.00
829;BME280;396;52.558;13.188;2023-02-18T09:07:35;100851.13;;;6.81;100.00
829;BME280;396;52.558;13.188;2023-02-18T09:10:02;100848.16;;;6.82;100.00
829;BME280;396;52.558;13.188;2023-02-18T09:12:29;100843.31;;;6.79;100.00
829;BME280;396;52.558;13.188;2023-02-18T09:14:55;100831.75;;;6.79;100.00
829;BME280;396;52.558;13.188;2023-02-18T09:17:22;100849.25;;;6.87;100.00
829;BME280;396;52.558;13.188;2023-02-18T09:19:50;100843.59;;;6.83;100.00
829;BME280;396;52.558;13.188;2023-02-18T09:22:17;100840.09;;;6.88;100.00
829;BME280;396;52.558;13.188;2023-02-18T09:24:43;100838.72;;;6.90;100.00
829;BME280;396;52.558;13.188;2023-02-18T09:27:10;100838.47;;;6.97;100.00
829;BME280;396;52.558;13.188;2023-02-18T09:29:38;100827.69;;;7.02;100.00
829;BME280;396;52.558;13.188;2023-02-18T09:32:07;100827.16;;;7.00;100.00
829;BME280;396;52.558;13.188;2023-02-18T09:34:34;100815.31;;;6.96;100.00
829;BME280;396;52.558;13.188;2023-02-18T09:37:03;100800.75;;;6.97;100.00
829;BME280;396;52.558;13.188;2023-02-18T09:39:29;100793.75;;;7.06;100.00
829;BME280;396;52.558;13.188;2023-02-18T09:41:58;100790.22;;;7.11;100.00
829;BME280;396;52.558;13.188;2023-02-18T09:44:28;100784.59;;;7.17;100.00
829;BME280;396;52.558;13.188;2023-02-18T09:46:59;100781.88;;;7.22;100.00
829;BME280;396;52.558;13.188;2023-02-18T09:49:30;100774.84;;;7.21;100.00
829;BME280;396;52.558;13.188;2023-02-18T09:52:05;100771.34;;;7.21;100.00
829;BME280;396;52.558;13.188;2023-02-18T09:54:32;100764.09;;;7.16;100.00
829;BME280;396;52.558;13.188;2023-02-18T09:56:59;100758.69;;;7.16;100.00
829;BME280;396;52.558;13.188;2023-02-18T09:59:27;100745.22;;;7.16;100.00
829;BME280;396;52.558;13.188;2023-02-18T10:01:54;100739.03;;;7.16;100.00
829;BME280;396;52.558;13.188;2023-02-18T10:04:25;100739.03;;;7.16;100.00
829;BME280;396;52.558;13.188;2023-02-18T10:06:55;100742.84;;;7.04;100.00
829;BME280;396;52.558;13.188;2023-02-18T10:09:27;100735.56;;;7.10;100.00
829;BME280;396;52.558;13.188;2023-02-18T10:11:57;100742.56;;;7.06;100.00
829;BME280;396;52.558;13.188;2023-02-18T10:14:24;100738.53;;;7.03;100.00
829;BME280;396;52.558;13.188;2023-02-18T10:16:51;100715.63;;;7.06;100.00
829;BME280;396;52.558;13.188;2023-02-18T10:19:25;100721.00;;;7.11;100.00
829;BME280;396;52.558;13.188;2023-02-18T10:21:53;100708.63;;;7.10;100.00
829;BME280;396;52.558;13.188;2023-02-18T10:24:28;100694.88;;;7.12;100.00
829;BME280;396;52.558;13.188;2023-02-18T10:26:57;100677.88;;;7.16;100.00
829;BME280;396;52.558;13.188;2023-02-18T10:29:25;100662.81;;;7.15;100.00
829;BME280;396;52.558;13.188;2023-02-18T10:31:55;100647.19;;;7.17;100.00
829;BME280;396;52.558;13.188;2023-02-18T10:34:38;100659.25;;;7.25;100.00
829;BME280;396;52.558;13.188;2023-02-18T10:37:12;100641.22;;;7.25;100.00
829;BME280;396;52.558;13.188;2023-02-18T10:39:54;100631.25;;;7.21;100.00
829;BME280;396;52.558;13.188;2023-02-18T10:42:31;100622.94;;;7.22;100.00
829;BME280;396;52.558;13.188;2023-02-18T10:45:08;100615.91;;;7.21;100.00
829;BME280;396;52.558;13.188;2023-02-18T10:47:45;100611.13;;;7.13;100.00
829;BME280;396;52.558;13.188;2023-02-18T10:50:24;100604.66;;;7.14;100.00
829;BME280;396;52.558;13.188;2023-02-18T10:52:56;100596.81;;;7.18;100.00
829;BME280;396;52.558;13.188;2023-02-18T10:55:35;100581.47;;;7.18;100.00
829;BME280;396;52.558;13.188;2023-02-18T10:58:02;100585.47;;;7.21;100.00
829;BME280;396;52.558;13.188;2023-02-18T11:00:34;100565.00;;;7.20;100.00
829;BME280;396;52.558;13.188;2023-02-18T11:03:08;100557.47;;;7.17;100.00
829;BME280;396;52.558;13.188;2023-02-18T11:05:38;100546.97;;;7.20;100.00
829;BME280;396;52.558;13.188;2023-02-18T11:08:07;100538.38;;;7.18;100.00
829;BME280;396;52.558;13.188;2023-02-18T11:10:38;100528.91;;;7.21;100.00
829;BME280;396;52.558;13.188;2023-02-18T11:13:07;100521.63;;;7.21;100.00
829;BME280;396;52.558;13.188;2023-02-18T11:15:34;100511.44;;;7.18;100.00
829;BME280;396;52.558;13.188;2023-02-18T11:18:12;100494.47;;;7.18;100.00
829;BME280;396;52.558;13.188;2023-02-18T11:20:39;100494.69;;;7.21;100.00
829;BME280;396;52.558;13.188;2023-02-18T11:23:17;100485.81;;;7.21;100.00
829;BME280;396;52.558;13.188;2023-02-18T11:25:55;100493.09;;;7.20;100.00
829;BME280;396;52.558;13.188;2023-02-18T11:28:30;100472.06;;;7.22;100.00
829;BME280;396;52.558;13.188;2023-02-18T11:31:00;100461.84;;;7.19;100.00
829;BME280;396;52.558;13.188;2023-02-18T11:33:32;100460.25;;;7.18;100.00
829;BME280;396;52.558;13.188;2023-02-18T11:36:04;100465.59;;;7.23;100.00
829;BME280;396;52.558;13.188;2023-02-18T11:38:43;100455.91;;;7.22;100.00
829;BME280;396;52.558;13.188;2023-02-18T11:41:14;100447.53;;;7.24;100.00
829;BME280;396;52.558;13.188;2023-02-18T11:43:42;100442.66;;;7.26;100.00
829;BME280;396;52.558;13.188;2023-02-18T11:46:11;100425.13;;;7.28;100.00
829;BME280;396;52.558;13.188;2023-02-18T11:48:39;100426.19;;;7.32;100.00
829;BME280;396;52.558;13.188;2023-02-18T11:51:14;100402.69;;;7.38;100.00
829;BME280;396;52.558;13.188;2023-02-18T11:53:56;100407.22;;;7.43;100.00
829;BME280;396;52.558;13.188;2023-02-18T11:56:27;100396.97;;;7.45;100.00
829;BME280;396;52.558;13.188;2023-02-18T11:58:54;100402.00;;;7.51;100.00
829;BME280;396;52.558;13.188;2023-02-18T12:01:29;100382.03;;;7.57;100.00
829;BME280;396;52.558;13.188;2023-02-18T12:04:00;100376.28;;;7.64;100.00
829;BME280;396;52.558;13.188;2023-02-18T12:06:33;100368.66;;;7.71;100.00
829;BME280;396;52.558;13.188;2023-02-18T12:09:04;100368.31;;;7.78;100.00
829;BME280;396;52.558;13.188;2023-02-18T12:11:36;100352.34;;;7.81;100.00
829;BME280;396;52.558;13.188;2023-02-18T12:14:17;100351.19;;;7.88;100.00
829;BME280;396;52.558;13.188;2023-02-18T12:16:56;100356.47;;;7.98;100.00
829;BME280;396;52.558;13.188;2023-02-18T12:19:48;100350.38;;;8.11;100.00
829;BME280;396;52.558;13.188;2023-02-18T12:22:22;100343.00;;;8.17;100.00
829;BME280;396;52.558;13.188;2023-02-18T12:25:06;100332.06;;;8.27;100.00
829;BME280;396;52.558;13.188;2023-02-18T12:27:43;100332.78;;;8.38;100.00
829;BME280;396;52.558;13.188;2023-02-18T12:30:31;100330.94;;;8.52;100.00
829;BME280;396;52.558;13.188;2023-02-18T12:33:07;100326.13;;;8.68;100.00
829;BME280;396;52.558;13.188;2023-02-18T12:35:53;100321.63;;;8.77;100.00
829;BME280;396;52.558;13.188;2023-02-18T12:38:48;100311.38;;;8.93;100.00
829;BME280;396;52.558;13.188;2023-02-18T12:41:28;100309.69;;;8.97;100.00
829;BME280;396;52.558;13.188;2023-02-18T12:44:09;100306.00;;;9.20;100.00
829;BME280;396;52.558;13.188;2023-02-18T12:46:54;100302.25;;;9.35;100.00
829;BME280;396;52.558;13.188;2023-02-18T12:49:38;100297.22;;;9.42;100.00
829;BME280;396;52.558;13.188;2023-02-18T12:52:22;100296.94;;;9.57;100.00
829;BME280;396;52.558;13.188;2023-02-18T12:57:47;100281.09;;;9.78;100.00
829;BME280;396;52.558;13.188;2023-02-18T13:00:52;100286.66;;;9.96;100.00
829;BME280;396;52.558;13.188;2023-02-18T13:03:46;100272.72;;;10.02;100.00
829;BME280;396;52.558;13.188;2023-02-18T13:06:26;100275.31;;;10.07;100.00
829;BME280;396;52.558;13.188;2023-02-18T13:09:04;100266.97;;;10.04;100.00
829;BME280;396;52.558;13.188;2023-02-18T13:11:40;100265.66;;;10.15;100.00
829;BME280;396;52.558;13.188;2023-02-18T13:14:15;100255.13;;;10.27;100.00
829;BME280;396;52.558;13.188;2023-02-18T13:16:50;100257.19;;;10.30;100.00
829;BME280;396;52.558;13.188;2023-02-18T13:19:20;100265.03;;;10.32;100.00
829;BME280;396;52.558;13.188;2023-02-18T13:21:51;100267.22;;;10.30;100.00
829;BME280;396;52.558;13.188;2023-02-18T13:24:28;100263.13;;;10.32;100.00
829;BME280;396;52.558;13.188;2023-02-18T13:27:03;100273.22;;;10.41;100.00
829;BME280;396;52.558;13.188;2023-02-18T13:29:34;100277.03;;;10.40;100.00
829;BME280;396;52.558;13.188;2023-02-18T13:32:07;100270.63;;;10.35;100.00
829;BME280;396;52.558;13.188;2023-02-18T13:34:42;100283.41;;;10.44;100.00
829;BME280;396;52.558;13.188;2023-02-18T13:37:19;100264.34;;;10.49;100.00
829;BME280;396;52.558;13.188;2023-02-18T13:39:49;100268.66;;;10.50;100.00
829;BME280;396;52.558;13.188;2023-02-18T13:42:35;100270.25;;;10.51;100.00
829;BME280;396;52.558;13.188;2023-02-18T13:45:22;100250.81;;;10.49;100.00
829;BME280;396;52.558;13.188;2023-02-18T13:47:51;100256.06;;;10.45;100.00
829;BME280;396;52.558;13.188;2023-02-18T13:50:30;100260.47;;;10.41;100.00
829;BME280;396;52.558;13.188;2023-02-18T13:53:12;100259.84;;;10.44;100.00
829;BME280;396;52.558;13.188;2023-02-18T13:55:41;100257.13;;;10.44;100.00
829;BME280;396;52.558;13.188;2023-02-18T13:58:14;100256.84;;;10.46;100.00